Time;durP1;ratioP1;P1;durP2;ratioP2;P2;SDS_P1;SDS_P2;PMS_P1;PMS_P2;Temp;Humidity;BMP_temperature;BMP_pressure;BME280_temperature;BME280_humidity;BME280_pressure;Samples;Min_cycle;Max_cycle;Signal;HPM_P1;HPM_P2
2022/12/20 00:02:12;;;;;;;8.07;3.50;;;;;;;-2.08;84.84;100608.66;5109397;27;20121;-52
2022/12/20 00:04:38;;;;;;;9.02;4.20;;;;;;;-2.18;84.98;100596.44;5090519;28;20039;-51
2022/12/20 00:07:04;;;;;;;9.13;4.60;;;;;;;-2.18;85.03;100588.81;5073698;28;20047;-48
2022/12/20 00:09:30;;;;;;;4.93;2.22;;;;;;;-2.11;84.97;100587.31;5073432;28;20044;-51
2022/12/20 00:11:56;;;;;;;8.93;3.80;;;;;;;-2.21;84.81;100607.41;5096886;28;20922;-57
2022/12/20 00:14:22;;;;;;;5.05;3.20;;;;;;;-2.33;84.80;100601.06;5107502;28;20042;-59
2022/12/20 00:16:48;;;;;;;9.30;3.97;;;;;;;-2.56;85.23;100565.53;5102941;28;20112;-50
2022/12/20 00:19:13;;;;;;;7.65;3.60;;;;;;;-2.40;85.20;100614.41;5089531;28;20481;-52
2022/12/20 00:21:39;;;;;;;4.82;2.67;;;;;;;-2.48;85.22;100615.84;5096186;28;20039;-51
2022/12/20 00:24:06;;;;;;;9.45;3.97;;;;;;;-2.48;85.45;100615.84;5093653;28;20151;-50
2022/12/20 00:26:33;;;;;;;4.30;2.35;;;;;;;-2.44;85.61;100613.44;5109526;28;20126;-52
2022/12/20 00:29:00;;;;;;;7.95;3.33;;;;;;;-2.44;85.69;100589.66;5091581;28;20051;-53
2022/12/20 00:31:28;;;;;;;4.82;2.30;;;;;;;-2.48;85.75;100588.72;5071613;28;20072;-52
2022/12/20 00:33:55;;;;;;;4.60;2.95;;;;;;;-2.54;85.86;100595.28;5070396;28;20045;-55
2022/12/20 00:36:22;;;;;;;6.32;3.03;;;;;;;-2.51;85.96;100591.13;5086279;27;20067;-53
2022/12/20 00:38:50;;;;;;;3.60;1.67;;;;;;;-2.55;85.91;100586.78;5100003;28;20050;-54
2022/12/20 00:41:19;;;;;;;8.57;4.13;;;;;;;-2.63;86.09;100575.50;5082405;28;20054;-54
2022/12/20 00:43:45;;;;;;;6.00;2.65;;;;;;;-2.48;86.39;100573.44;5098789;28;20040;-52
2022/12/20 00:46:12;;;;;;;5.45;2.95;;;;;;;-2.69;85.97;100540.53;5104452;28;20050;-51
2022/12/20 00:48:38;;;;;;;8.05;3.15;;;;;;;-2.74;86.05;100534.44;5107494;27;20114;-52
2022/12/20 00:51:10;;;;;;;10.80;3.38;;;;;;;-2.63;85.90;100550.91;5092854;28;20067;-48
2022/12/20 00:53:37;;;;;;;6.45;2.65;;;;;;;-2.64;86.13;100546.63;5107538;28;20035;-50
2022/12/20 00:56:03;;;;;;;3.72;2.28;;;;;;;-2.70;85.84;100543.88;5098381;28;20036;-51
2022/12/20 00:58:31;;;;;;;5.40;2.45;;;;;;;-2.79;85.65;100537.63;5090948;28;20048;-52
2022/12/20 01:00:57;;;;;;;4.40;2.70;;;;;;;-2.87;86.00;100539.03;5093506;28;20055;-48
2022/12/20 01:03:24;;;;;;;6.80;3.42;;;;;;;-2.88;85.71;100540.75;5104152;28;20040;-50
2022/12/20 01:05:52;;;;;;;9.02;3.70;;;;;;;-2.81;85.88;100540.13;5098809;28;20052;-52
2022/12/20 01:08:18;;;;;;;5.25;2.65;;;;;;;-2.84;85.71;100562.06;5072166;28;20036;-48
2022/12/20 01:10:44;;;;;;;9.23;3.92;;;;;;;-2.91;85.54;100548.25;5088893;28;20089;-51
2022/12/20 01:13:10;;;;;;;6.68;3.33;;;;;;;-2.82;85.81;100552.78;5096646;28;20142;-52
2022/12/20 01:15:36;;;;;;;4.63;2.92;;;;;;;-2.80;85.89;100556.25;5089810;28;20518;-49
2022/12/20 01:18:02;;;;;;;7.28;3.88;;;;;;;-2.84;85.74;100568.03;5091939;28;20119;-53
2022/12/20 01:20:28;;;;;;;4.80;2.90;;;;;;;-2.80;85.52;100528.25;5091176;28;20044;-50
2022/12/20 01:22:54;;;;;;;8.98;3.17;;;;;;;-2.78;85.53;100539.38;5108567;28;20427;-53
2022/12/20 01:25:20;;;;;;;5.93;2.05;;;;;;;-2.76;85.64;100550.44;5083124;28;20040;-50
2022/12/20 01:27:46;;;;;;;8.45;3.58;;;;;;;-2.84;85.34;100550.22;5084519;28;20056;-54
2022/12/20 01:30:12;;;;;;;7.40;3.08;;;;;;;-3.02;85.62;100516.50;5085964;28;20063;-53
2022/12/20 01:32:38;;;;;;;13.25;5.70;;;;;;;-3.10;85.94;100497.59;5107531;28;20031;-51
2022/12/20 01:35:05;;;;;;;9.35;5.35;;;;;;;-2.85;86.01;100538.28;5105753;28;20117;-52
2022/12/20 01:37:31;;;;;;;10.02;3.88;;;;;;;-2.82;86.00;100533.28;5094392;28;20136;-51
2022/12/20 01:39:57;;;;;;;10.20;4.60;;;;;;;-2.77;85.78;100536.84;5103825;28;20044;-49
2022/12/20 01:42:23;;;;;;;6.07;2.72;;;;;;;-2.82;85.74;100540.06;5102307;28;20089;-50
2022/12/20 01:44:55;;;;;;;8.65;4.05;;;;;;;-2.89;85.83;100530.50;5072209;28;20043;-51
2022/12/20 01:47:21;;;;;;;7.18;3.10;;;;;;;-2.95;85.95;100485.38;5091953;28;20069;-52
2022/12/20 01:49:50;;;;;;;8.90;3.97;;;;;;;-2.79;85.69;100520.69;5108826;28;20058;-52
2022/12/20 01:52:32;;;;;;;9.32;4.60;;;;;;;-2.89;85.65;100533.06;5058121;28;20040;-50
2022/12/20 01:55:04;;;;;;;6.15;2.50;;;;;;;-2.94;85.64;100515.09;5071714;28;20526;-49
2022/12/20 01:58:00;;;;;;;6.03;2.55;;;;;;;-3.02;86.10;100511.44;5088507;28;20035;-52
2022/12/20 02:00:26;;;;;;;4.78;2.72;;;;;;;-2.95;85.82;100518.47;5087380;28;20055;-49
2022/12/20 02:02:53;;;;;;;9.85;4.28;;;;;;;-2.98;85.83;100509.88;5088884;28;20035;-52
2022/12/20 02:05:22;;;;;;;5.15;2.90;;;;;;;-3.00;85.54;100510.69;5064076;28;20044;-48
2022/12/20 02:07:50;;;;;;;11.40;4.17;;;;;;;-3.15;85.70;100491.50;5099996;28;20043;-50
2022/12/20 02:10:18;;;;;;;3.72;2.00;;;;;;;-3.14;85.59;100501.69;5105652;28;20289;-55
2022/12/20 02:12:45;;;;;;;5.72;3.08;;;;;;;-3.17;85.60;100503.28;5063512;28;20040;-54
2022/12/20 02:15:15;;;;;;;11.35;4.32;;;;;;;-3.19;85.42;100503.22;5093375;28;20035;-51
2022/12/20 02:17:57;;;;;;;7.10;3.35;;;;;;;-3.29;84.67;100496.09;5108611;28;20044;-53
2022/12/20 02:20:54;;;;;;;7.53;3.45;;;;;;;-3.51;84.37;100479.25;5106071;28;20046;-51
2022/12/20 02:23:44;;;;;;;10.27;4.15;;;;;;;-3.43;83.94;100492.25;5095444;28;20135;-50
2022/12/20 02:26:39;;;;;;;6.00;3.10;;;;;;;-3.50;84.01;100495.38;5103509;28;20067;-53
2022/12/20 02:29:32;;;;;;;11.27;3.83;;;;;;;-3.79;83.48;100451.19;5085216;28;20044;-50
2022/12/20 02:32:15;;;;;;;8.23;3.75;;;;;;;-3.63;83.96;100480.53;5093007;28;20035;-52
2022/12/20 02:34:42;;;;;;;7.53;3.78;;;;;;;-3.65;83.52;100474.50;5086128;28;20042;-57
2022/12/20 02:37:08;;;;;;;10.70;3.75;;;;;;;-4.11;83.19;100400.91;5089969;28;20415;-51
2022/12/20 02:39:37;;;;;;;7.03;3.22;;;;;;;-3.75;83.35;100468.25;5110037;28;20124;-50
2022/12/20 02:42:12;;;;;;;5.75;2.70;;;;;;;-3.74;83.22;100456.41;5082795;28;20081;-53
2022/12/20 02:47:49;;;;;;;6.43;3.13;;;;;;;-4.14;83.35;100398.28;5097305;28;20039;-55
2022/12/20 02:50:36;;;;;;;6.07;3.05;;;;;;;-3.87;83.42;100455.97;5110198;28;20053;-53
2022/12/20 02:53:03;;;;;;;12.65;4.60;;;;;;;-3.90;83.52;100455.00;5071575;28;20123;-50
2022/12/20 02:55:48;;;;;;;9.55;4.60;;;;;;;-3.92;83.32;100454.06;5099445;28;20040;-50
2022/12/20 02:58:28;;;;;;;8.60;4.05;;;;;;;-3.98;83.62;100452.19;5108912;28;20032;-51
2022/12/20 03:00:56;;;;;;;13.25;5.05;;;;;;;-4.06;83.67;100455.25;5071999;28;20047;-53
2022/12/20 03:03:22;;;;;;;17.38;4.97;;;;;;;-4.15;83.58;100435.50;5091524;28;20085;-53
2022/12/20 03:05:51;;;;;;;10.38;5.30;;;;;;;-4.20;82.85;100429.38;5074412;28;20048;-52
2022/12/20 03:08:19;;;;;;;9.75;3.35;;;;;;;-4.24;83.12;100437.72;5106362;28;20490;-51
2022/12/20 03:10:46;;;;;;;11.68;4.25;;;;;;;-4.31;81.96;100429.00;5095157;28;20050;-51
2022/12/20 03:13:12;;;;;;;11.23;4.57;;;;;;;-4.31;81.89;100434.06;5083558;28;20046;-49
2022/12/20 03:15:45;;;;;;;8.35;3.95;;;;;;;-4.39;81.68;100410.06;5087934;28;20044;-51
2022/12/20 03:18:11;;;;;;;9.32;4.35;;;;;;;-4.40;81.04;100407.50;5054591;28;20044;-49
2022/12/20 03:20:37;;;;;;;7.15;3.58;;;;;;;-4.54;80.87;100383.25;5069092;28;20530;-51
2022/12/20 03:23:03;;;;;;;8.38;3.20;;;;;;;-4.41;80.45;100405.75;5074194;28;20126;-48
2022/12/20 03:25:29;;;;;;;10.95;4.22;;;;;;;-4.63;80.06;100377.84;5109448;28;20089;-50
2022/12/20 03:27:57;;;;;;;8.55;3.05;;;;;;;-4.49;79.56;100402.94;5091222;28;20085;-51
2022/12/20 03:30:25;;;;;;;8.23;3.03;;;;;;;-4.53;79.83;100401.09;5076488;28;20048;-52
2022/12/20 03:32:50;;;;;;;12.82;4.68;;;;;;;-4.56;80.30;100397.59;5096264;28;20069;-48
2022/12/20 03:35:17;;;;;;;9.63;3.92;;;;;;;-4.64;80.59;100391.34;5094838;28;20088;-52
2022/12/20 03:37:42;;;;;;;9.75;4.28;;;;;;;-4.70;80.39;100391.97;5073985;28;20044;-51
2022/12/20 03:40:10;;;;;;;9.95;3.70;;;;;;;-4.81;80.47;100391.56;5090870;28;20043;-48
2022/12/20 03:42:36;;;;;;;7.60;2.97;;;;;;;-4.85;80.68;100374.53;5090534;28;20066;-52
2022/12/20 03:45:03;;;;;;;11.18;4.40;;;;;;;-4.88;80.24;100376.94;5102960;28;20040;-49
2022/12/20 03:47:31;;;;;;;9.45;3.60;;;;;;;-4.96;80.48;100357.16;5109330;28;20048;-50
2022/12/20 03:49:57;;;;;;;7.43;3.95;;;;;;;-4.96;80.15;100372.38;5110768;28;20414;-49
2022/12/20 03:52:23;;;;;;;9.18;4.00;;;;;;;-5.01;80.02;100369.66;5085604;28;20048;-54
2022/12/20 03:54:49;;;;;;;6.88;3.38;;;;;;;-5.04;79.41;100363.63;5102370;28;20040;-54
2022/12/20 03:57:18;;;;;;;8.73;3.95;;;;;;;-5.07;79.13;100345.75;5111222;28;20039;-50
2022/12/20 03:59:47;;;;;;;7.80;3.70;;;;;;;-5.32;79.03;100314.41;5100951;28;20063;-53
2022/12/20 04:02:15;;;;;;;9.07;3.80;;;;;;;-5.16;79.04;100348.78;5098091;28;20101;-54
2022/12/20 04:04:41;;;;;;;10.38;4.07;;;;;;;-5.32;78.66;100308.47;5100029;28;20457;-50
2022/12/20 04:07:08;;;;;;;10.60;4.28;;;;;;;-5.19;78.43;100326.75;5110043;28;20055;-49
2022/12/20 04:09:36;;;;;;;10.57;4.23;;;;;;;-5.37;77.79;100290.56;5077121;28;20035;-50
2022/12/20 04:12:10;;;;;;;7.95;3.17;;;;;;;-5.58;76.79;100256.78;5076388;28;20301;-54
2022/12/20 04:14:37;;;;;;;9.43;3.67;;;;;;;-5.42;76.54;100291.19;5096668;28;20067;-54
2022/12/20 04:17:04;;;;;;;7.30;3.13;;;;;;;-5.22;76.66;100326.63;5106446;28;20575;-50
2022/12/20 04:19:30;;;;;;;14.23;3.92;;;;;;;-5.44;76.84;100298.72;5110505;28;20051;-48
2022/12/20 04:21:57;;;;;;;13.90;3.78;;;;;;;-5.23;76.75;100321.47;5093683;28;20109;-52
2022/12/20 04:24:26;;;;;;;13.75;3.83;;;;;;;-5.24;76.89;100320.66;5073679;28;20127;-52
2022/12/20 04:27:21;;;;;;;9.15;3.20;;;;;;;-5.30;75.67;100334.75;5091857;28;20052;-51
2022/12/20 04:29:49;;;;;;;9.43;3.75;;;;;;;-5.36;75.65;100324.34;5076758;28;20047;-56
2022/12/20 04:32:17;;;;;;;13.35;3.90;;;;;;;-5.34;75.16;100328.66;5068370;28;20119;-51
2022/12/20 04:34:44;;;;;;;10.23;3.78;;;;;;;-5.36;74.93;100337.91;5108530;28;20039;-54
2022/12/20 04:37:10;;;;;;;5.97;2.85;;;;;;;-5.37;74.65;100328.56;5074577;28;20126;-54
2022/12/20 04:39:44;;;;;;;8.27;4.18;;;;;;;-5.36;74.17;100331.94;5101728;28;20139;-48
2022/12/20 04:42:19;;;;;;;7.15;3.53;;;;;;;-5.44;73.87;100316.44;5088799;28;20122;-53
2022/12/20 04:44:45;;;;;;;15.13;4.78;;;;;;;-5.41;73.91;100329.25;5095697;28;20036;-54
2022/12/20 04:47:14;;;;;;;9.90;3.42;;;;;;;-5.43;73.36;100333.38;5091875;28;20044;-51
2022/12/20 04:49:40;;;;;;;8.30;4.03;;;;;;;-5.46;72.83;100323.13;5093721;28;20430;-54
2022/12/20 04:54:50;;;;;;;9.52;3.92;;;;;;;-5.58;72.07;100315.03;5089511;28;20032;-48
2022/12/20 04:57:22;;;;;;;11.75;4.78;;;;;;;-5.83;72.33;100285.34;5088607;28;20500;-54
2022/12/20 04:59:48;;;;;;;10.73;3.70;;;;;;;-5.67;72.00;100312.16;5088652;28;20052;-51
2022/12/20 05:02:15;;;;;;;13.13;4.53;;;;;;;-5.66;71.96;100312.22;5070416;28;20122;-50
2022/12/20 05:04:48;;;;;;;14.90;4.80;;;;;;;-5.70;72.09;100305.28;5068635;28;20052;-53
2022/12/20 05:07:15;;;;;;;11.65;4.78;;;;;;;-5.67;72.07;100307.94;5070606;28;20571;-49
2022/12/20 05:09:48;;;;;;;13.65;4.95;;;;;;;-5.87;71.65;100273.41;5071496;28;20060;-54
2022/12/20 05:12:14;;;;;;;14.63;4.50;;;;;;;-5.62;71.65;100309.00;5088700;28;20035;-53
2022/12/20 05:14:40;;;;;;;11.68;4.63;;;;;;;-5.62;71.31;100301.41;5093716;28;20516;-55
2022/12/20 05:17:08;;;;;;;11.90;4.85;;;;;;;-5.58;71.75;100299.84;5086755;28;20036;-54
2022/12/20 05:19:34;;;;;;;12.57;4.75;;;;;;;-5.56;71.23;100299.13;5088718;28;20070;-50
2022/12/20 05:27:44;;;;;;;15.10;5.20;;;;;;;-5.49;70.54;100276.53;5067644;28;20425;-55
2022/12/20 05:30:10;;;;;;;11.85;5.10;;;;;;;-5.48;70.60;100280.81;5088353;28;20473;-52
2022/12/20 05:32:36;;;;;;;8.95;3.42;;;;;;;-5.46;70.32;100261.47;5051474;28;20494;-53
2022/12/20 05:35:02;;;;;;;12.73;5.25;;;;;;;-5.60;70.02;100250.81;5081128;28;20119;-54
2022/12/20 05:37:30;;;;;;;15.32;5.57;;;;;;;-5.47;70.21;100258.06;5089650;28;20418;-56
2022/12/20 05:40:04;;;;;;;13.27;5.60;;;;;;;-5.42;70.05;100268.38;5101411;28;20039;-55
2022/12/20 05:42:30;;;;;;;13.80;5.13;;;;;;;-5.40;69.38;100264.25;5089294;28;20032;-54
2022/12/20 05:44:57;;;;;;;12.38;4.03;;;;;;;-5.41;69.60;100254.91;5073768;28;20113;-57
2022/12/20 05:47:23;;;;;;;17.15;5.47;;;;;;;-5.39;69.51;100264.28;5104799;28;20511;-55
2022/12/20 05:50:02;;;;;;;11.05;4.15;;;;;;;-5.36;69.80;100248.34;5102110;28;20031;-52
2022/12/20 05:52:34;;;;;;;14.30;5.47;;;;;;;-5.28;69.95;100244.41;5091610;28;20040;-55
2022/12/20 05:55:00;;;;;;;9.07;4.13;;;;;;;-5.46;69.71;100210.81;5104353;28;20125;-55
2022/12/20 05:57:29;;;;;;;16.25;5.40;;;;;;;-5.27;69.19;100239.41;5087246;28;20036;-55
2022/12/20 05:59:55;;;;;;;17.10;5.22;;;;;;;-5.24;69.34;100239.56;5090691;28;20086;-51
2022/12/20 06:02:23;;;;;;;12.57;3.67;;;;;;;-5.21;69.00;100238.78;5080911;28;20044;-56
2022/12/20 06:04:57;;;;;;;13.98;4.65;;;;;;;-5.18;69.08;100233.84;5075026;28;20422;-51
2022/12/20 06:07:27;;;;;;;11.77;3.92;;;;;;;-5.18;68.40;100234.69;5088394;28;20376;-52
2022/12/20 06:09:57;;;;;;;9.57;3.92;;;;;;;-5.15;68.69;100228.88;5088023;28;20040;-55
2022/12/20 06:12:34;;;;;;;12.90;4.63;;;;;;;-5.28;67.99;100214.00;5087321;28;20461;-51
2022/12/20 06:15:00;;;;;;;10.95;4.18;;;;;;;-5.21;67.78;100226.97;5088418;28;20097;-53
2022/12/20 06:17:30;;;;;;;10.93;4.25;;;;;;;-5.15;67.69;100226.34;5106005;28;20066;-52
2022/12/20 06:19:57;;;;;;;12.38;3.63;;;;;;;-5.14;67.58;100239.09;5087680;28;20055;-49
2022/12/20 06:22:23;;;;;;;12.30;4.78;;;;;;;-5.12;67.27;100223.91;5077389;28;20081;-50
2022/12/20 06:24:56;;;;;;;8.77;3.90;;;;;;;-5.12;67.43;100221.38;5103849;28;20038;-57
2022/12/20 06:27:27;;;;;;;10.80;4.35;;;;;;;-5.10;67.67;100221.44;5071973;28;20073;-48
2022/12/20 06:30:05;;;;;;;12.55;5.25;;;;;;;-5.05;67.14;100217.41;5061769;28;20036;-56
2022/12/20 06:32:44;;;;;;;8.27;4.25;;;;;;;-5.21;67.41;100170.34;5067686;28;20052;-53
2022/12/20 06:35:10;;;;;;;7.43;4.10;;;;;;;-4.96;67.10;100218.59;5089534;28;20040;-47
2022/12/20 06:37:39;;;;;;;13.77;4.55;;;;;;;-4.96;66.95;100205.03;5070943;28;20516;-45
2022/12/20 06:40:10;;;;;;;;;;;;;;;-4.94;66.55;100195.84;5105051;28;20040;-55
2022/12/20 06:42:36;;;;;;;;;;;;;;;-4.95;67.05;100197.50;5100388;28;19920;-50
2022/12/20 06:45:02;;;;;;;11.25;3.53;;;;;;;-4.96;66.31;100197.44;5102428;28;19920;-55
2022/12/20 06:47:29;;;;;;;13.93;5.32;;;;;;;-5.38;66.36;100146.94;5079582;28;20043;-51
2022/12/20 06:49:55;;;;;;;11.85;4.63;;;;;;;-5.03;66.26;100190.44;5086080;28;20427;-50
2022/12/20 06:52:23;;;;;;;10.73;3.78;;;;;;;-5.06;66.76;100170.03;5087674;28;20040;-50
2022/12/20 06:54:51;;;;;;;10.95;4.95;;;;;;;-5.06;66.65;100167.50;5087705;28;20035;-47
2022/12/20 06:57:19;;;;;;;10.75;4.50;;;;;;;-5.06;66.87;100175.09;5102683;28;20139;-56
2022/12/20 06:59:47;;;;;;;14.00;5.40;;;;;;;-5.05;66.39;100167.56;5100982;28;20052;-50
2022/12/20 07:02:13;;;;;;;17.08;4.63;;;;;;;-5.04;66.26;100146.47;5101027;28;20407;-49
2022/12/20 07:04:39;;;;;;;8.48;3.58;;;;;;;-4.91;66.54;100147.75;5109255;28;20043;-50
2022/12/20 07:07:05;;;;;;;12.07;3.00;;;;;;;-4.83;66.92;100142.16;5107393;28;20070;-51
2022/12/20 07:09:31;;;;;;;7.88;3.40;;;;;;;-4.78;66.38;100143.19;5100548;28;20588;-50
2022/12/20 07:11:57;;;;;;;12.07;3.90;;;;;;;-4.75;66.25;100137.31;5095835;28;20395;-49
2022/12/20 07:14:23;;;;;;;10.65;4.18;;;;;;;-4.74;66.13;100134.84;5087550;28;20040;-54
2022/12/20 07:16:49;;;;;;;10.77;3.17;;;;;;;-4.80;65.72;100127.03;5094015;28;20114;-47
2022/12/20 07:19:15;;;;;;;11.25;3.58;;;;;;;-4.82;65.91;100118.53;5092261;28;20031;-45
2022/12/20 07:21:41;;;;;;;12.02;3.17;;;;;;;-4.97;65.76;100092.63;5122251;27;20518;-51
2022/12/20 07:24:07;;;;;;;12.77;4.35;;;;;;;-4.96;65.64;100080.81;5087408;28;20131;-49
2022/12/20 07:26:34;;;;;;;8.25;3.13;;;;;;;-4.89;65.56;100085.28;5094887;28;20464;-51
2022/12/20 07:29:00;;;;;;;9.70;3.67;;;;;;;-4.44;65.35;100103.69;5071768;28;20040;-46
2022/12/20 07:31:26;;;;;;;5.93;2.97;;;;;;;-4.24;64.78;100099.25;5076084;28;20055;-53
2022/12/20 07:33:52;;;;;;;8.32;2.83;;;;;;;-4.37;64.40;100022.72;5093311;28;20036;-53
2022/12/20 07:36:18;;;;;;;5.13;2.45;;;;;;;-3.81;64.27;100076.00;5091026;28;20032;-51
2022/12/20 07:38:44;;;;;;;4.50;2.13;;;;;;;-3.77;63.31;100048.22;5091624;28;20043;-49
2022/12/20 07:41:13;;;;;;;8.00;2.92;;;;;;;-3.49;62.58;100024.41;5092220;28;20074;-48
2022/12/20 07:43:40;;;;;;;9.00;3.40;;;;;;;-2.88;62.18;100051.44;5080231;28;20393;-51
2022/12/20 07:46:06;;;;;;;7.30;2.72;;;;;;;-2.73;61.07;100046.75;5070469;28;20601;-48
2022/12/20 07:48:33;;;;;;;4.18;2.05;;;;;;;-2.81;60.59;100041.44;5075016;28;20112;-50
2022/12/20 07:51:07;;;;;;;4.13;2.20;;;;;;;-2.85;60.19;100008.28;5094475;28;20097;-50
2022/12/20 07:53:37;;;;;;;3.80;1.98;;;;;;;-2.42;59.18;100033.06;5127820;27;20047;-48
2022/12/20 07:56:02;;;;;;;;;;;;;;;-1.97;57.94;100023.00;5094304;28;20036;-49
2022/12/20 07:58:29;;;;;;;3.50;1.65;;;;;;;-1.78;56.86;100018.31;5078848;28;19920;-49
2022/12/20 08:00:56;;;;;;;6.05;2.42;;;;;;;-2.04;56.89;99957.50;5090223;28;20036;-50
2022/12/20 08:03:30;;;;;;;6.80;2.90;;;;;;;-1.68;57.04;99976.06;5088173;28;20035;-48
2022/12/20 08:06:02;;;;;;;8.23;2.97;;;;;;;-1.31;55.84;99972.50;5090760;28;20158;-47
2022/12/20 08:08:31;;;;;;;4.18;2.20;;;;;;;-1.08;55.33;100006.91;5074467;28;20043;-51
2022/12/20 08:10:58;;;;;;;7.18;3.25;;;;;;;-0.94;54.81;100007.97;5089924;28;20438;-50
2022/12/20 08:13:24;;;;;;;6.20;2.22;;;;;;;-0.92;53.94;100006.31;5091783;28;20067;-49
2022/12/20 08:15:50;;;;;;;5.47;2.30;;;;;;;-1.25;54.16;100007.41;5109509;28;20043;-47
2022/12/20 08:18:16;;;;;;;6.72;2.67;;;;;;;-1.08;54.00;100001.78;5109815;28;20154;-52
2022/12/20 08:20:42;;;;;;;5.90;2.08;;;;;;;-0.68;53.32;100005.84;5096424;28;20126;-51
2022/12/20 08:23:08;;;;;;;5.63;2.45;;;;;;;-0.17;53.08;99989.59;5091317;28;20507;-50
2022/12/20 08:25:34;;;;;;;6.50;2.10;;;;;;;0.24;51.43;99997.78;5090112;28;20047;-48
2022/12/20 08:28:01;;;;;;;3.63;1.75;;;;;;;0.24;51.30;99995.22;5072204;28;20036;-47
2022/12/20 08:30:28;;;;;;;4.50;2.30;;;;;;;0.13;50.02;100000.19;5083028;28;20043;-51
2022/12/20 08:32:54;;;;;;;5.70;2.47;;;;;;;-0.06;50.46;99991.47;5079223;28;20665;-46
2022/12/20 08:35:21;;;;;;;5.25;2.28;;;;;;;-0.91;50.27;99940.84;5093210;28;20086;-50
2022/12/20 08:37:50;;;;;;;6.72;2.92;;;;;;;-1.07;51.23;99977.16;5110930;27;20482;-47
2022/12/20 08:40:16;;;;;;;4.25;2.38;;;;;;;-0.71;51.40;99980.28;5101004;28;20047;-53
2022/12/20 08:42:41;;;;;;;5.75;2.75;;;;;;;-0.83;51.38;99931.59;5093104;28;20424;-49
2022/12/20 08:45:08;;;;;;;6.35;2.25;;;;;;;-0.77;50.70;99926.59;5069683;28;20072;-50
2022/12/20 08:47:33;;;;;;;5.65;2.20;;;;;;;-0.72;50.89;99970.03;5073908;28;20157;-50
2022/12/20 08:50:00;;;;;;;5.60;2.20;;;;;;;-0.39;50.52;99977.34;5110308;28;20521;-52
2022/12/20 08:52:27;;;;;;;6.15;2.65;;;;;;;-0.34;49.50;99994.47;5084276;28;20139;-48
2022/12/20 08:54:54;;;;;;;6.20;2.60;;;;;;;-0.33;49.65;99962.13;5072541;28;20513;-51
2022/12/20 08:57:19;;;;;;;5.82;2.33;;;;;;;0.08;49.31;99975.44;5090983;28;20035;-50
2022/12/20 08:59:45;;;;;;;4.88;2.70;;;;;;;0.11;48.57;99948.19;5072368;28;20059;-51
2022/12/20 09:02:11;;;;;;;5.55;2.42;;;;;;;0.20;48.30;99919.34;5072674;28;20119;-51
2022/12/20 09:04:37;;;;;;;5.57;2.40;;;;;;;-0.31;48.65;99955.31;5072462;28;20047;-52
2022/12/20 09:07:03;;;;;;;4.30;2.08;;;;;;;0.04;49.05;99935.34;5090851;28;20032;-50
2022/12/20 09:09:29;;;;;;;7.15;3.15;;;;;;;0.00;48.65;99898.69;5091437;28;20036;-52
2022/12/20 09:11:56;;;;;;;4.45;2.50;;;;;;;0.48;48.01;99912.78;5089000;28;20046;-55
2022/12/20 09:14:22;;;;;;;7.32;2.90;;;;;;;0.72;47.77;99920.72;5107335;28;20043;-48
2022/12/20 09:16:48;;;;;;;5.60;2.38;;;;;;;0.87;47.26;99915.72;5099880;28;20036;-51
2022/12/20 09:19:14;;;;;;;5.43;3.00;;;;;;;0.95;46.47;99911.50;5105751;28;20049;-48
2022/12/20 09:21:40;;;;;;;7.13;2.40;;;;;;;0.56;46.22;99883.91;5110674;28;20456;-49
2022/12/20 09:24:06;;;;;;;4.32;2.55;;;;;;;0.80;46.83;99890.91;5109038;28;20146;-47
2022/12/20 09:26:34;;;;;;;6.35;3.15;;;;;;;0.98;46.60;99885.94;5107710;28;20035;-54
2022/12/20 09:29:00;;;;;;;6.45;2.72;;;;;;;0.78;46.30;99890.06;5095660;28;20102;-47
2022/12/20 09:31:27;;;;;;;11.15;3.05;;;;;;;0.99;46.13;99885.09;5068503;28;20079;-49
2022/12/20 09:33:54;;;;;;;4.82;2.35;;;;;;;1.73;45.58;99868.47;5096587;28;20197;-49
2022/12/20 09:36:22;;;;;;;7.35;3.33;;;;;;;2.22;44.64;99880.56;5108222;28;20541;-48
2022/12/20 09:38:48;;;;;;;8.35;3.40;;;;;;;1.97;44.93;99865.97;5069916;28;20044;-49
2022/12/20 09:41:40;;;;;;;8.45;3.20;;;;;;;2.14;44.55;99854.06;5085386;28;20040;-51
2022/12/20 09:44:15;;;;;;;4.35;2.08;;;;;;;2.06;44.14;99848.03;5066965;28;20060;-48
2022/12/20 09:46:43;;;;;;;6.03;2.33;;;;;;;1.65;44.53;99829.97;5109057;28;20510;-51
2022/12/20 09:49:16;;;;;;;7.18;3.20;;;;;;;1.05;45.20;99845.88;5080266;28;20040;-48
2022/12/20 09:51:55;;;;;;;7.15;3.00;;;;;;;-0.27;46.93;99837.91;5088685;28;20096;-50
2022/12/20 09:54:30;;;;;;;7.45;3.15;;;;;;;-0.87;48.51;99823.50;5075991;28;20043;-49
2022/12/20 09:57:00;;;;;;;9.50;2.90;;;;;;;-1.13;49.00;99831.63;5108890;28;20039;-51
2022/12/20 09:59:26;;;;;;;8.00;3.20;;;;;;;-1.86;49.94;99823.66;5108195;28;20087;-50
2022/12/20 10:01:52;;;;;;;2.72;1.67;;;;;;;-2.11;50.57;99823.22;5092538;28;20064;-50
2022/12/20 10:04:28;;;;;;;8.77;3.53;;;;;;;-2.49;51.72;99805.50;5087831;28;20507;-48
2022/12/20 10:06:56;;;;;;;5.97;2.80;;;;;;;-2.67;52.20;99807.72;5089434;28;20113;-53
2022/12/20 10:09:28;;;;;;;7.57;3.28;;;;;;;-2.80;53.18;99806.59;5089301;28;20509;-50
2022/12/20 10:12:26;;;;;;;7.20;3.10;;;;;;;-2.84;53.42;99803.94;5089268;28;20104;-49
2022/12/20 10:15:26;;;;;;;5.97;2.22;;;;;;;-2.95;53.97;99801.19;5112370;27;20047;-49
2022/12/20 10:17:55;;;;;;;7.25;3.17;;;;;;;-3.17;54.46;99796.44;5106639;28;20051;-52
2022/12/20 10:20:46;;;;;;;4.80;2.17;;;;;;;-3.27;54.67;99787.75;5091256;28;20063;-50
2022/12/20 10:23:27;;;;;;;4.25;2.35;;;;;;;-3.39;55.30;99778.97;5104743;28;20157;-49
2022/12/20 10:25:55;;;;;;;7.22;3.00;;;;;;;-3.40;55.38;99775.59;5067366;28;20040;-46
2022/12/20 10:28:29;;;;;;;9.20;2.55;;;;;;;-3.45;55.95;99761.91;5094767;28;20040;-47
2022/12/20 10:31:01;;;;;;;6.07;2.33;;;;;;;-3.54;56.25;99760.03;5085507;28;20068;-47
2022/12/20 10:33:28;;;;;;;8.38;3.45;;;;;;;-3.54;56.41;99764.25;5071181;28;20079;-48
2022/12/20 10:35:54;;;;;;;8.55;3.47;;;;;;;-3.55;56.11;99753.22;5107547;28;20503;-46
2022/12/20 10:38:21;;;;;;;8.32;3.47;;;;;;;-3.51;56.81;99747.38;5107874;28;20031;-46
2022/12/20 10:40:59;;;;;;;7.35;3.05;;;;;;;-3.49;56.67;99753.38;5106609;28;20031;-48
2022/12/20 10:43:26;;;;;;;6.22;2.83;;;;;;;-3.48;57.04;99749.16;5088876;28;20067;-52
2022/12/20 10:45:58;;;;;;;6.43;2.83;;;;;;;-2.68;56.80;99734.75;5109211;28;20063;-49
2022/12/20 10:48:35;;;;;;;3.80;1.90;;;;;;;-0.93;53.84;99730.69;5090843;28;20038;-49
2022/12/20 10:51:09;;;;;;;7.53;3.00;;;;;;;0.09;51.20;99729.22;5107486;28;20526;-51
2022/12/20 10:53:36;;;;;;;7.43;3.47;;;;;;;-0.29;50.90;99723.75;5100558;28;20036;-47
2022/12/20 10:56:12;;;;;;;9.68;3.63;;;;;;;-1.02;52.67;99730.59;5087544;28;20118;-48
2022/12/20 10:58:38;;;;;;;7.03;2.92;;;;;;;-1.51;52.78;99726.50;5088898;28;20063;-48
2022/12/20 11:01:13;;;;;;;8.27;3.40;;;;;;;-1.98;53.51;99736.84;5091393;28;20039;-51
2022/12/20 11:04:07;;;;;;;10.50;3.78;;;;;;;-2.28;54.40;99733.78;5092844;28;20052;-48
2022/12/20 11:06:43;;;;;;;6.63;2.25;;;;;;;-2.35;54.62;99721.75;5106318;28;20052;-53
2022/12/20 11:09:21;;;;;;;10.90;2.47;;;;;;;-2.26;54.83;99727.03;5093497;28;20044;-47
2022/12/20 11:11:56;;;;;;;6.80;2.38;;;;;;;-2.39;55.11;99723.41;5091678;28;20044;-51
2022/12/20 11:14:22;;;;;;;11.30;3.13;;;;;;;-2.60;55.22;99723.88;5091166;28;20044;-49
2022/12/20 11:16:50;;;;;;;4.82;2.28;;;;;;;-2.57;55.53;99720.53;5092384;28;20040;-49
2022/12/20 11:19:31;;;;;;;6.72;2.55;;;;;;;-2.63;55.82;99723.81;5095529;28;20043;-49
2022/12/20 11:22:15;;;;;;;7.35;3.25;;;;;;;-2.59;56.05;99723.03;5081893;28;20043;-48
2022/12/20 11:25:22;;;;;;;8.43;3.45;;;;;;;-2.77;56.10;99722.69;5092302;28;20039;-48
2022/12/20 11:28:10;;;;;;;5.82;2.75;;;;;;;-2.54;56.40;99723.13;5090939;28;20052;-51
2022/12/20 11:30:42;;;;;;;4.95;2.35;;;;;;;-1.56;54.83;99715.41;5088397;28;20074;-53
2022/12/20 11:33:30;;;;;;;5.20;3.10;;;;;;;-0.63;53.56;99712.34;5071641;28;20059;-50
2022/12/20 11:36:06;;;;;;;5.97;2.85;;;;;;;-0.31;52.22;99710.09;5091477;28;20547;-50
2022/12/20 11:38:39;;;;;;;7.03;3.17;;;;;;;-0.24;51.47;99704.22;5090546;28;20040;-50
2022/12/20 11:41:29;;;;;;;5.88;2.42;;;;;;;-0.55;51.25;99713.28;5090306;28;20039;-48
2022/12/20 11:44:18;;;;;;;8.77;3.33;;;;;;;-1.48;52.70;99712.16;5090498;28;20043;-49
2022/12/20 11:46:57;;;;;;;6.70;3.10;;;;;;;-2.00;53.32;99710.50;5092598;28;20044;-48
2022/12/20 11:49:30;;;;;;;4.72;2.22;;;;;;;-2.46;54.21;99710.56;5109040;28;20111;-52
2022/12/20 11:52:01;;;;;;;8.25;3.25;;;;;;;-2.79;55.10;99715.88;5110738;28;20042;-49